createdAt,value
2023-04-19T00:02:25.687Z,7.03
2023-04-19T00:04:53.431Z,7.32
2023-04-19T00:07:20.420Z,6.82
2023-04-19T00:09:47.008Z,8.50
2023-04-19T00:12:13.561Z,5.70
2023-04-19T00:14:40.012Z,8.63
2023-04-19T00:17:06.696Z,6.47
2023-04-19T00:19:33.306Z,7.65
2023-04-19T00:21:59.784Z,5.90
2023-04-19T00:24:26.271Z,7.90
2023-04-19T00:26:52.808Z,7.13
2023-04-19T00:29:19.317Z,6.57
2023-04-19T00:31:45.770Z,7.95
2023-04-19T00:34:12.494Z,8.00
2023-04-19T00:36:38.980Z,7.88
2023-04-19T00:41:33.116Z,8.38
2023-04-19T00:43:59.577Z,8.27
2023-04-19T00:46:26.475Z,7.35
2023-04-19T00:48:53.469Z,8.90
2023-04-19T00:51:20.267Z,7.03
2023-04-19T00:53:46.931Z,7.22
2023-04-19T00:56:13.851Z,9.32
2023-04-19T00:58:40.444Z,9.18
2023-04-19T01:01:06.941Z,7.47
2023-04-19T01:03:35.053Z,7.90
2023-04-19T01:06:02.052Z,6.10
2023-04-19T01:08:28.618Z,6.70
2023-04-19T01:10:55.169Z,6.75
2023-04-19T01:13:21.614Z,6.60
2023-04-19T01:15:48.457Z,7.85
2023-04-19T01:18:15.146Z,6.72
2023-04-19T01:20:42.567Z,6.70
2023-04-19T01:23:11.545Z,8.20
2023-04-19T01:25:38.802Z,7.40
2023-04-19T01:28:05.782Z,6.40
2023-04-19T01:30:32.790Z,7.65
2023-04-19T01:32:59.366Z,8.00
2023-04-19T01:35:26.175Z,7.47
2023-04-19T01:37:55.618Z,6.90
2023-04-19T01:40:23.699Z,8.93
2023-04-19T01:42:50.170Z,13.15
2023-04-19T01:45:16.599Z,13.80
2023-04-19T01:47:43.050Z,10.05
2023-04-19T01:50:09.672Z,12.38
2023-04-19T01:52:36.223Z,8.75
2023-04-19T01:55:02.673Z,7.97
2023-04-19T01:57:29.913Z,9.70
2023-04-19T01:59:57.330Z,8.25
2023-04-19T02:02:24.012Z,9.25
2023-04-19T02:04:50.576Z,9.35
2023-04-19T02:07:17.060Z,7.93
2023-04-19T02:09:43.592Z,8.63
2023-04-19T02:12:10.049Z,7.40
2023-04-19T02:14:36.756Z,8.13
2023-04-19T02:17:03.433Z,7.68
2023-04-19T02:19:29.968Z,7.80
2023-04-19T02:21:57.797Z,7.30
2023-04-19T02:24:24.802Z,8.18
2023-04-19T02:26:51.430Z,9.43
2023-04-19T02:29:18.386Z,7.10
2023-04-19T02:31:46.523Z,7.88
2023-04-19T02:34:13.453Z,8.00
2023-04-19T02:36:40.149Z,6.88
2023-04-19T02:39:06.881Z,8.13
2023-04-19T02:41:33.370Z,9.27
2023-04-19T02:44:01.601Z,9.85
2023-04-19T02:46:28.063Z,7.45
2023-04-19T02:48:54.538Z,10.32
2023-04-19T02:51:21.169Z,9.23
2023-04-19T02:53:47.772Z,7.32
2023-04-19T02:56:14.335Z,8.65
2023-04-19T02:58:40.999Z,8.18
2023-04-19T03:01:07.599Z,9.48
2023-04-19T03:03:34.138Z,8.02
2023-04-19T03:06:00.706Z,8.10
2023-04-19T03:10:54.736Z,8.57
2023-04-19T03:13:21.189Z,9.13
2023-04-19T03:15:48.377Z,7.88
2023-04-19T03:18:17.270Z,7.93
2023-04-19T03:20:43.894Z,8.27
2023-04-19T03:23:10.814Z,7.45
2023-04-19T03:25:37.432Z,11.15
2023-04-19T03:28:16.292Z,8.93
2023-04-19T03:31:02.970Z,8.40
2023-04-19T03:33:29.481Z,7.68
2023-04-19T03:35:56.112Z,8.43
2023-04-19T03:38:23.328Z,8.55
2023-04-19T03:40:50.241Z,9.27
2023-04-19T03:43:17.456Z,8.48
2023-04-19T03:45:44.038Z,8.27
2023-04-19T03:48:11.742Z,7.40
2023-04-19T03:50:38.568Z,8.07
2023-04-19T03:53:05.901Z,7.80
2023-04-19T03:55:32.482Z,8.55
2023-04-19T03:58:00.390Z,7.53
2023-04-19T04:00:49.746Z,8.00
2023-04-19T04:03:16.648Z,7.57
2023-04-19T04:05:43.304Z,7.43
2023-04-19T04:08:09.783Z,7.93
2023-04-19T04:10:36.492Z,7.50
2023-04-19T04:13:02.962Z,7.35
2023-04-19T04:15:40.311Z,7.13
2023-04-19T04:18:10.046Z,10.10
2023-04-19T04:20:36.979Z,7.32
2023-04-19T04:23:07.563Z,7.82
2023-04-19T04:25:37.480Z,8.50
2023-04-19T04:28:06.758Z,9.80
2023-04-19T04:30:33.880Z,7.28
2023-04-19T04:33:01.205Z,10.88
2023-04-19T04:35:29.920Z,12.88
2023-04-19T04:38:17.476Z,8.55
2023-04-19T04:40:53.551Z,7.25
2023-04-19T04:43:21.844Z,7.88
2023-04-19T04:45:48.605Z,7.15
2023-04-19T04:48:15.392Z,6.40
2023-04-19T04:50:42.048Z,7.43
2023-04-19T04:53:08.921Z,8.13
2023-04-19T04:55:37.007Z,8.57
2023-04-19T04:58:06.808Z,7.75
2023-04-19T05:00:47.157Z,7.05
2023-04-19T05:03:13.970Z,7.32
2023-04-19T05:05:46.552Z,6.95
2023-04-19T05:08:13.079Z,8.90
2023-04-19T05:10:39.715Z,7.47
2023-04-19T05:13:06.201Z,6.93
2023-04-19T05:15:33.340Z,7.35
2023-04-19T05:18:03.845Z,6.53
2023-04-19T05:20:30.992Z,7.57
2023-04-19T05:23:11.378Z,6.70
2023-04-19T05:25:39.421Z,5.93
2023-04-19T05:28:06.836Z,8.25
2023-04-19T05:30:42.420Z,8.60
2023-04-19T05:33:09.779Z,8.88
2023-04-19T05:35:36.998Z,7.05
2023-04-19T05:38:03.563Z,8.98
2023-04-19T05:40:30.421Z,6.82
2023-04-19T05:42:58.392Z,7.82
2023-04-19T05:45:25.915Z,6.78
2023-04-19T05:47:52.504Z,6.72
2023-04-19T05:50:39.657Z,7.75
2023-04-19T05:53:23.816Z,6.45
2023-04-19T05:55:52.303Z,6.97
2023-04-19T05:58:19.306Z,7.20
2023-04-19T06:00:46.146Z,6.47
2023-04-19T06:03:16.367Z,6.40
2023-04-19T06:05:43.368Z,8.13
2023-04-19T06:08:09.911Z,6.20
2023-04-19T06:10:52.529Z,7.97
2023-04-19T06:13:20.846Z,7.47
2023-04-19T06:15:47.499Z,6.78
2023-04-19T06:18:18.886Z,6.40
2023-04-19T06:20:46.969Z,6.63
2023-04-19T06:23:14.889Z,6.47
2023-04-19T06:25:41.731Z,11.65
2023-04-19T06:28:08.228Z,7.63
2023-04-19T06:30:34.636Z,7.80
2023-04-19T06:33:01.280Z,8.02
2023-04-19T06:35:27.786Z,7.25
2023-04-19T06:37:54.300Z,6.85
2023-04-19T06:40:20.897Z,9.00
2023-04-19T06:42:47.403Z,7.90
2023-04-19T06:45:15.153Z,7.70
2023-04-19T06:47:41.851Z,7.30
2023-04-19T06:50:08.665Z,7.88
2023-04-19T06:52:36.135Z,6.28
2023-04-19T06:57:28.960Z,5.53
2023-04-19T06:59:55.656Z,6.15
2023-04-19T07:02:22.278Z,6.93
2023-04-19T07:04:49.090Z,6.38
2023-04-19T07:07:15.672Z,6.82
2023-04-19T07:09:42.137Z,6.97
2023-04-19T07:12:08.709Z,7.75
2023-04-19T07:14:35.226Z,6.05
2023-04-19T07:17:03.755Z,8.10
2023-04-19T07:19:30.250Z,6.40
2023-04-19T07:21:56.714Z,6.50
2023-04-19T07:24:23.205Z,4.55
2023-04-19T07:26:49.702Z,6.15
2023-04-19T07:29:16.393Z,4.75
2023-04-19T07:31:43.036Z,5.72
2023-04-19T07:34:09.970Z,5.90
2023-04-19T07:36:37.880Z,4.57
2023-04-19T07:39:04.923Z,5.00
2023-04-19T07:41:32.110Z,6.15
2023-04-19T07:43:58.593Z,5.50
2023-04-19T07:46:25.098Z,4.38
2023-04-19T07:48:51.603Z,4.35
2023-04-19T07:51:19.279Z,4.60
2023-04-19T07:53:46.464Z,5.05
2023-04-19T07:56:13.286Z,4.20
2023-04-19T07:58:41.404Z,4.60
2023-04-19T08:01:08.197Z,4.88
2023-04-19T08:03:35.635Z,4.60
2023-04-19T08:06:03.082Z,4.75
2023-04-19T08:08:29.660Z,5.05
2023-04-19T08:10:56.149Z,5.10
2023-04-19T08:13:22.996Z,5.32
2023-04-19T08:18:19.177Z,5.50
2023-04-19T08:20:48.816Z,11.20
2023-04-19T08:23:22.677Z,14.23
2023-04-19T08:25:52.387Z,11.95
2023-04-19T08:28:19.231Z,6.45
2023-04-19T08:30:46.007Z,4.75
2023-04-19T08:33:12.609Z,4.95
2023-04-19T08:35:41.333Z,4.43
2023-04-19T08:38:08.300Z,3.78
2023-04-19T08:40:35.794Z,5.60
2023-04-19T08:43:05.276Z,5.88
2023-04-19T08:45:31.895Z,4.32
2023-04-19T08:48:01.225Z,4.35
2023-04-19T08:50:34.335Z,4.10
2023-04-19T08:53:20.828Z,3.90
2023-04-19T08:56:08.525Z,4.25
2023-04-19T08:58:54.772Z,4.55
2023-04-19T09:01:33.858Z,3.40
2023-04-19T09:04:20.796Z,3.13
2023-04-19T09:06:48.787Z,3.40
2023-04-19T09:11:46.281Z,3.40
2023-04-19T09:14:14.578Z,3.58
2023-04-19T09:16:41.537Z,3.30
2023-04-19T09:19:23.300Z,4.35
2023-04-19T09:21:53.049Z,3.97
2023-04-19T09:24:19.582Z,4.20
2023-04-19T09:26:55.135Z,3.25
2023-04-19T09:29:21.667Z,3.47
2023-04-19T09:31:56.696Z,3.58
2023-04-19T09:34:24.075Z,2.85
2023-04-19T09:36:57.627Z,3.70
2023-04-19T09:39:38.077Z,1.83
2023-04-19T09:42:04.536Z,3.42
2023-04-19T09:45:02.133Z,3.53
2023-04-19T09:47:24.191Z,3.08
2023-04-19T09:50:15.276Z,2.67
2023-04-19T09:52:49.702Z,3.95
2023-04-19T09:55:26.898Z,3.42
2023-04-19T09:57:55.312Z,2.25
2023-04-19T10:00:22.582Z,3.55
2023-04-19T10:05:22.936Z,2.35
2023-04-19T10:07:49.932Z,3.50
2023-04-19T10:10:21.437Z,3.22
2023-04-19T10:13:11.403Z,2.42
2023-04-19T10:18:07.822Z,2.25
2023-04-19T10:20:39.308Z,1.92
2023-04-19T10:23:07.493Z,3.20
2023-04-19T10:25:36.584Z,2.85
2023-04-19T10:28:03.195Z,2.00
2023-04-19T10:30:29.851Z,2.22
2023-04-19T10:32:57.597Z,3.83
2023-04-19T10:35:31.503Z,3.08
2023-04-19T10:38:07.099Z,2.70
2023-04-19T10:40:56.041Z,2.60
2023-04-19T10:43:26.777Z,2.97
2023-04-19T10:45:53.889Z,2.50
2023-04-19T10:48:26.339Z,3.05
2023-04-19T10:51:14.356Z,3.92
2023-04-19T10:53:59.720Z,2.10
2023-04-19T10:59:08.440Z,2.38
2023-04-19T11:01:39.612Z,2.25
2023-04-19T11:04:07.062Z,2.63
2023-04-19T11:06:34.247Z,2.22
2023-04-19T11:09:02.979Z,2.35
2023-04-19T11:11:33.065Z,2.70
2023-04-19T11:14:00.290Z,4.75
2023-04-19T11:19:08.773Z,2.15
2023-04-19T11:21:55.476Z,1.77
2023-04-19T11:24:21.998Z,2.53
2023-04-19T11:26:48.764Z,2.65
2023-04-19T11:29:15.446Z,3.95
2023-04-19T11:31:46.503Z,2.35
2023-04-19T11:34:13.410Z,2.17
2023-04-19T11:36:50.256Z,2.58
2023-04-19T11:39:16.952Z,2.25
2023-04-19T11:41:43.472Z,2.60
2023-04-19T11:44:13.742Z,2.53
2023-04-19T11:46:40.360Z,3.92
2023-04-19T11:49:07.308Z,4.72
2023-04-19T11:51:34.007Z,3.45
2023-04-19T11:54:00.642Z,3.65
2023-04-19T11:56:27.192Z,4.22
2023-04-19T11:58:57.235Z,5.18
2023-04-19T12:01:25.758Z,3.63
2023-04-19T12:03:58.889Z,4.60
2023-04-19T12:08:53.049Z,4.32
2023-04-19T12:11:21.615Z,3.03
2023-04-19T12:13:48.388Z,3.65
2023-04-19T12:16:14.945Z,1.65
2023-04-19T12:18:49.193Z,3.20
2023-04-19T12:21:29.014Z,3.22
2023-04-19T12:24:00.056Z,3.60
2023-04-19T12:26:28.328Z,7.55
2023-04-19T12:28:55.273Z,3.67
2023-04-19T12:31:21.933Z,4.53
2023-04-19T12:33:48.908Z,3.72
2023-04-19T12:36:15.558Z,2.78
2023-04-19T12:38:42.363Z,6.22
2023-04-19T12:41:09.129Z,3.95
2023-04-19T12:43:35.620Z,4.90
2023-04-19T12:46:02.107Z,5.90
2023-04-19T12:48:28.685Z,6.65
2023-04-19T12:50:55.132Z,5.57
2023-04-19T12:53:22.863Z,4.88
2023-04-19T12:55:49.763Z,5.10
2023-04-19T12:58:16.837Z,4.10
2023-04-19T13:03:09.865Z,5.85
2023-04-19T13:05:36.795Z,3.83
2023-04-19T13:08:03.336Z,4.15
2023-04-19T13:10:29.924Z,4.22
2023-04-19T13:13:00.727Z,4.53
2023-04-19T13:15:28.634Z,4.40
2023-04-19T13:17:55.451Z,2.90
2023-04-19T13:20:22.038Z,4.82
2023-04-19T13:22:48.707Z,3.63
2023-04-19T13:25:15.362Z,3.85
2023-04-19T13:27:42.022Z,3.88
2023-04-19T13:30:08.702Z,3.45
2023-04-19T13:32:35.717Z,3.30
2023-04-19T13:35:03.176Z,4.35
2023-04-19T13:37:29.628Z,4.95
2023-04-19T13:40:07.038Z,2.72
2023-04-19T13:42:37.563Z,2.60
2023-04-19T13:45:04.847Z,4.13
2023-04-19T13:47:31.581Z,3.70
2023-04-19T13:49:58.129Z,2.55
2023-04-19T13:52:25.668Z,3.25
2023-04-19T13:54:52.135Z,3.33
2023-04-19T13:57:18.619Z,2.97
2023-04-19T13:59:45.279Z,2.58
2023-04-19T14:02:11.819Z,3.15
2023-04-19T14:04:38.455Z,2.28
2023-04-19T14:07:04.978Z,3.45
2023-04-19T14:09:31.610Z,2.92
2023-04-19T14:11:58.130Z,2.78
2023-04-19T14:14:24.579Z,2.35
2023-04-19T14:16:51.122Z,3.53
2023-04-19T14:19:17.768Z,2.20
2023-04-19T14:21:44.275Z,3.45
2023-04-19T14:24:10.705Z,1.88
2023-04-19T14:26:37.328Z,2.60
2023-04-19T14:29:03.820Z,4.20
2023-04-19T14:31:30.371Z,1.92
2023-04-19T14:33:57.343Z,2.85
2023-04-19T14:36:23.806Z,3.58
2023-04-19T14:38:51.412Z,2.42
2023-04-19T14:41:17.889Z,2.70
2023-04-19T14:43:44.394Z,4.15
2023-04-19T14:46:10.921Z,2.88
2023-04-19T14:48:37.514Z,2.40
2023-04-19T14:51:04.090Z,1.60
2023-04-19T14:53:32.278Z,2.42
2023-04-19T14:56:02.725Z,3.08
2023-04-19T14:58:29.171Z,2.78
2023-04-19T15:00:55.975Z,1.92
2023-04-19T15:03:22.721Z,3.72
2023-04-19T15:05:49.479Z,4.07
2023-04-19T15:08:29.056Z,3.20
2023-04-19T15:10:57.086Z,3.50
2023-04-19T15:13:23.552Z,2.20
2023-04-19T15:15:49.990Z,2.35
2023-04-19T15:18:16.592Z,3.00
2023-04-19T15:20:43.054Z,2.80
2023-04-19T15:23:09.518Z,3.45
2023-04-19T15:25:36.009Z,1.40
2023-04-19T15:28:02.514Z,2.35
2023-04-19T15:30:28.946Z,4.40
2023-04-19T15:32:55.526Z,2.95
2023-04-19T15:35:21.993Z,4.10
2023-04-19T15:37:48.495Z,5.80
2023-04-19T15:40:17.009Z,6.70
2023-04-19T15:42:43.541Z,12.38
2023-04-19T15:45:10.335Z,11.95
2023-04-19T15:47:36.889Z,11.95
2023-04-19T15:50:04.548Z,11.52
2023-04-19T15:52:31.197Z,13.77
2023-04-19T15:54:58.758Z,12.65
2023-04-19T15:57:25.615Z,12.52
2023-04-19T15:59:52.162Z,10.40
2023-04-19T16:02:18.782Z,14.02
2023-04-19T16:04:48.714Z,11.30
2023-04-19T16:07:15.322Z,9.82
2023-04-19T16:09:41.749Z,10.27
2023-04-19T16:12:08.293Z,10.10
2023-04-19T16:14:34.841Z,11.73
2023-04-19T16:17:01.382Z,10.10
2023-04-19T16:19:27.828Z,8.70
2023-04-19T16:21:54.333Z,9.27
2023-04-19T16:24:20.991Z,9.00
2023-04-19T16:26:47.601Z,10.95
2023-04-19T16:29:14.270Z,11.88
2023-04-19T16:31:40.778Z,9.70
2023-04-19T16:34:07.295Z,6.80
2023-04-19T16:36:33.880Z,9.18
2023-04-19T16:39:00.577Z,7.82
2023-04-19T16:41:27.211Z,6.88
2023-04-19T16:43:55.504Z,6.65
2023-04-19T16:46:22.715Z,7.32
2023-04-19T16:48:49.281Z,8.73
2023-04-19T16:51:15.837Z,7.38
2023-04-19T16:53:43.555Z,8.85
2023-04-19T16:56:10.050Z,7.80
2023-04-19T16:58:36.736Z,7.00
2023-04-19T17:01:03.390Z,6.70
2023-04-19T17:03:33.071Z,9.82
2023-04-19T17:05:59.715Z,6.45
2023-04-19T17:08:26.680Z,8.77
2023-04-19T17:10:53.083Z,8.27
2023-04-19T17:13:19.557Z,5.05
2023-04-19T17:15:46.126Z,5.03
2023-04-19T17:18:12.646Z,5.80
2023-04-19T17:20:39.215Z,9.38
2023-04-19T17:23:05.728Z,6.38
2023-04-19T17:25:32.186Z,6.78
2023-04-19T17:27:58.658Z,6.50
2023-04-19T17:30:25.184Z,5.88
2023-04-19T17:32:51.864Z,6.38
2023-04-19T17:35:18.452Z,7.47
2023-04-19T17:37:45.200Z,6.93
2023-04-19T17:40:12.016Z,6.47
2023-04-19T17:42:39.055Z,5.82
2023-04-19T17:45:11.099Z,6.78
2023-04-19T17:47:38.365Z,5.28
2023-04-19T17:50:09.599Z,5.40
2023-04-19T17:52:36.074Z,7.00
2023-04-19T17:55:04.496Z,5.75
2023-04-19T17:57:33.656Z,4.82
2023-04-19T18:00:00.896Z,4.53
2023-04-19T18:02:27.726Z,5.63
2023-04-19T18:04:54.770Z,4.43
2023-04-19T18:07:21.313Z,5.47
2023-04-19T18:09:47.782Z,5.03
2023-04-19T18:12:14.193Z,3.67
2023-04-19T18:14:42.930Z,4.40
2023-04-19T18:17:09.361Z,4.22
2023-04-19T18:19:37.307Z,4.97
2023-04-19T18:22:03.767Z,5.53
2023-04-19T18:24:30.251Z,4.05
2023-04-19T18:26:58.136Z,5.07
2023-04-19T18:29:24.640Z,7.35
2023-04-19T18:31:52.878Z,4.15
2023-04-19T18:34:19.672Z,3.25
2023-04-19T18:36:46.162Z,3.90
2023-04-19T18:39:13.306Z,5.15
2023-04-19T18:41:39.814Z,4.95
2023-04-19T18:44:31.830Z,3.67
2023-04-19T18:46:54.456Z,5.70
2023-04-19T18:49:21.521Z,4.75
2023-04-19T18:51:48.199Z,5.25
2023-04-19T18:54:14.734Z,4.88
2023-04-19T18:57:11.627Z,3.58
2023-04-19T18:59:27.667Z,3.90
2023-04-19T19:01:56.582Z,5.38
2023-04-19T19:06:53.655Z,3.45
2023-04-19T19:09:22.813Z,3.70
2023-04-19T19:11:55.948Z,4.70
2023-04-19T19:14:23.283Z,2.70
2023-04-19T19:16:52.304Z,3.33
2023-04-19T19:19:20.691Z,2.92
2023-04-19T19:21:47.505Z,3.28
2023-04-19T19:24:13.993Z,3.33
2023-04-19T19:26:40.491Z,5.65
2023-04-19T19:29:09.281Z,4.22
2023-04-19T19:31:36.111Z,4.15
2023-04-19T19:34:14.738Z,5.85
2023-04-19T19:36:45.040Z,3.63
2023-04-19T19:39:11.535Z,4.50
2023-04-19T19:42:04.465Z,2.65
2023-04-19T19:44:26.749Z,2.90
2023-04-19T19:46:53.311Z,3.70
2023-04-19T19:49:19.927Z,3.85
2023-04-19T19:51:57.700Z,3.25
2023-04-19T19:54:25.401Z,3.25
2023-04-19T19:59:25.125Z,3.22
2023-04-19T20:01:56.055Z,2.35
2023-04-19T20:04:22.988Z,5.20
2023-04-19T20:09:19.229Z,3.05
2023-04-19T20:11:46.122Z,4.30
2023-04-19T20:14:12.630Z,1.88
2023-04-19T20:16:39.485Z,2.78
2023-04-19T20:19:10.263Z,4.43
2023-04-19T20:21:37.869Z,7.15
2023-04-19T20:24:05.841Z,4.13
2023-04-19T20:26:32.595Z,4.05
2023-04-19T20:28:59.250Z,5.15
2023-04-19T20:31:26.309Z,4.00
2023-04-19T20:33:53.477Z,2.83
2023-04-19T20:36:22.576Z,4.05
2023-04-19T20:38:49.688Z,4.03
2023-04-19T20:41:19.223Z,3.13
2023-04-19T20:43:45.671Z,4.70
2023-04-19T20:46:12.328Z,8.38
2023-04-19T20:48:39.076Z,3.38
2023-04-19T20:51:05.728Z,4.07
2023-04-19T20:53:32.248Z,3.63
2023-04-19T20:55:59.003Z,3.97
2023-04-19T20:58:25.630Z,4.55
2023-04-19T21:00:52.207Z,6.47
2023-04-19T21:03:18.949Z,15.98
2023-04-19T21:05:45.997Z,8.27
2023-04-19T21:08:12.771Z,2.65
2023-04-19T21:10:39.244Z,5.53
2023-04-19T21:13:06.100Z,6.32
2023-04-19T21:15:32.680Z,6.65
2023-04-19T21:17:59.266Z,1.75
2023-04-19T21:20:25.814Z,5.13
2023-04-19T21:22:52.256Z,16.08
2023-04-19T21:25:18.687Z,7.22
2023-04-19T21:27:45.130Z,5.63
2023-04-19T21:30:14.574Z,3.72
2023-04-19T21:32:41.066Z,4.53
2023-04-19T21:35:08.328Z,4.18
2023-04-19T21:37:35.683Z,6.22
2023-04-19T21:40:04.543Z,5.65
2023-04-19T21:42:31.383Z,4.28
2023-04-19T21:44:57.881Z,5.55
2023-04-19T21:47:24.509Z,4.22
2023-04-19T21:49:53.989Z,3.90
2023-04-19T21:52:21.111Z,3.90
2023-04-19T21:54:48.745Z,4.72
2023-04-19T21:57:15.497Z,3.13
2023-04-19T21:59:42.149Z,3.75
2023-04-19T22:02:08.883Z,2.85
2023-04-19T22:04:36.696Z,3.83
2023-04-19T22:07:03.307Z,2.08
2023-04-19T22:09:29.963Z,2.95
2023-04-19T22:11:56.512Z,4.00
2023-04-19T22:14:25.785Z,7.68
2023-04-19T22:16:53.867Z,7.13
2023-04-19T22:19:20.386Z,8.50
2023-04-19T22:21:47.010Z,8.07
2023-04-19T22:24:13.600Z,8.15
2023-04-19T22:26:40.136Z,7.35
2023-04-19T22:29:06.634Z,7.82
2023-04-19T22:31:33.159Z,6.35
2023-04-19T22:33:59.608Z,7.40
2023-04-19T22:36:26.469Z,5.05
2023-04-19T22:38:52.910Z,11.70
2023-04-19T22:41:19.377Z,6.50
2023-04-19T22:43:45.896Z,5.72
2023-04-19T22:46:13.008Z,4.75
2023-04-19T22:48:39.493Z,7.43
2023-04-19T22:51:06.591Z,4.70
2023-04-19T22:53:33.262Z,6.75
2023-04-19T22:55:59.762Z,5.40
2023-04-19T22:58:26.255Z,6.20
2023-04-19T23:00:52.713Z,5.35
2023-04-19T23:03:19.196Z,4.68
2023-04-19T23:05:47.297Z,7.47
2023-04-19T23:08:15.118Z,8.40
2023-04-19T23:10:42.459Z,4.50
2023-04-19T23:13:10.393Z,5.07
2023-04-19T23:15:38.244Z,7.22
2023-04-19T23:18:04.950Z,5.90
2023-04-19T23:20:32.756Z,6.03
2023-04-19T23:22:59.422Z,6.35
2023-04-19T23:25:25.939Z,5.63
2023-04-19T23:27:52.602Z,5.13
2023-04-19T23:30:19.237Z,6.13
2023-04-19T23:32:45.982Z,5.22
2023-04-19T23:35:12.524Z,5.28
2023-04-19T23:37:39.398Z,5.38
2023-04-19T23:40:06.355Z,5.32
2023-04-19T23:42:32.814Z,4.85
2023-04-19T23:44:59.472Z,5.63
2023-04-19T23:47:26.176Z,4.65
2023-04-19T23:49:52.660Z,5.05
2023-04-19T23:52:22.515Z,5.80
2023-04-19T23:54:49.471Z,7.03
2023-04-19T23:57:16.126Z,7.63
2023-04-19T23:59:42.615Z,6.15
